This is the latest recevied weather packets stored in our database for station/object OK2VOP-6. If no packets are shown the sender has not sent any weather packets the latest 10 day(s).
| Time | Temp. | Humidity | Pressure | Rain* | Wind** | Luminosity | Snow |
|---|---|---|---|---|---|---|---|
| 1788391521 | 18.33° C | 46% | - | 0 mm | - | - | - |
| 1788390317 | 18.33° C | 45% | - | 0 mm | - | - | - |
| 1788389112 | 18.33° C | 47% | - | 0.25 mm | - | - | - |
| 1788387907 | 18.33° C | 51% | - | 0.25 mm | - | - | - |
| 1788386702 | 18.33° C | 45% | - | 0.25 mm | - | - | - |
| 1788385497 | 20° C | 34% | - | 0 mm | - | - | - |
| 1788384293 | 20.56° C | 35% | - | 0 mm | - | - | - |
| 1788383088 | 20.56° C | 32% | - | 0 mm | - | - | - |
| 1788381883 | 21.11° C | 29% | - | 0 mm | - | - | - |
| 1788380678 | 21.67° C | 28% | - | 0 mm | - | - | - |
| 1788379473 | 21.67° C | 27% | - | 0 mm | - | - | - |
| 1788378269 | 21.67° C | 27% | - | 0 mm | - | - | - |
| 1788377064 | 21.67° C | 26% | - | 0 mm | - | - | - |
| 1788375859 | 22.22° C | 24% | - | 0 mm | - | - | - |
| 1788374654 | 22.22° C | 24% | - | 0 mm | - | - | - |
| 1788373449 | 22.78° C | 23% | - | 0 mm | - | - | - |
| 1788372245 | 21.67° C | 24% | - | 0 mm | - | - | - |
| 1788371040 | 21.67° C | 28% | - | 0 mm | - | - | - |
| 1788369835 | 22.78° C | 24% | - | 0 mm | - | - | - |
| 1788368630 | 25° C | 20% | - | 0 mm | - | - | - |
| 1788367426 | 26.67° C | 12% | - | 0 mm | - | - | - |
| 1788366220 | 26.67° C | 13% | - | 0 mm | - | - | - |
| 1788365015 | 26.67° C | 16% | - | 0 mm | - | - | - |
| 1788363811 | 26.67° C | 12% | - | 0 mm | - | - | - |
| 1788362606 | 26.67° C | 15% | - | 0 mm | - | - | - |
* Rain latest hour (hover to see other rain measurements)
** Current wind speed in m/s (hover to see current wind gust speed)